sensor_id;sensor_type;location;lat;lon;timestamp;P1;durP1;ratioP1;P2;durP2;ratioP2
3543;SDS011;1786;52.870;9.578;2023-08-12T00:00:13;8.83;;;3.70;;
3543;SDS011;1786;52.870;9.578;2023-08-12T00:02:44;4.07;;;3.77;;
3543;SDS011;1786;52.870;9.578;2023-08-12T00:05:11;3.83;;;3.50;;
3543;SDS011;1786;52.870;9.578;2023-08-12T00:07:40;10.17;;;4.00;;
3543;SDS011;1786;52.870;9.578;2023-08-12T00:10:08;4.67;;;3.50;;
3543;SDS011;1786;52.870;9.578;2023-08-12T00:12:37;5.73;;;4.20;;
3543;SDS011;1786;52.870;9.578;2023-08-12T00:15:05;5.33;;;3.40;;
3543;SDS011;1786;52.870;9.578;2023-08-12T00:17:33;3.90;;;3.57;;
3543;SDS011;1786;52.870;9.578;2023-08-12T00:20:01;8.03;;;3.83;;
3543;SDS011;1786;52.870;9.578;2023-08-12T00:22:32;5.80;;;4.23;;
3543;SDS011;1786;52.870;9.578;2023-08-12T00:24:59;4.33;;;3.67;;
3543;SDS011;1786;52.870;9.578;2023-08-12T00:27:26;6.00;;;3.80;;
3543;SDS011;1786;52.870;9.578;2023-08-12T00:29:52;7.97;;;3.40;;
3543;SDS011;1786;52.870;9.578;2023-08-12T00:32:19;5.10;;;3.50;;
3543;SDS011;1786;52.870;9.578;2023-08-12T00:34:45;4.30;;;3.90;;
3543;SDS011;1786;52.870;9.578;2023-08-12T00:37:13;3.60;;;3.30;;
3543;SDS011;1786;52.870;9.578;2023-08-12T00:39:40;5.33;;;3.93;;
3543;SDS011;1786;52.870;9.578;2023-08-12T00:42:06;4.60;;;4.07;;
3543;SDS011;1786;52.870;9.578;2023-08-12T00:44:33;5.13;;;3.77;;
3543;SDS011;1786;52.870;9.578;2023-08-12T00:47:01;4.70;;;4.00;;
3543;SDS011;1786;52.870;9.578;2023-08-12T00:49:28;4.13;;;3.83;;
3543;SDS011;1786;52.870;9.578;2023-08-12T00:51:55;3.53;;;3.23;;
3543;SDS011;1786;52.870;9.578;2023-08-12T00:54:22;5.60;;;3.90;;
3543;SDS011;1786;52.870;9.578;2023-08-12T00:56:51;9.23;;;3.60;;
3543;SDS011;1786;52.870;9.578;2023-08-12T00:59:20;7.17;;;3.47;;
3543;SDS011;1786;52.870;9.578;2023-08-12T01:01:47;6.87;;;4.03;;
3543;SDS011;1786;52.870;9.578;2023-08-12T01:04:14;4.43;;;4.20;;
3543;SDS011;1786;52.870;9.578;2023-08-12T01:06:41;4.07;;;3.77;;
3543;SDS011;1786;52.870;9.578;2023-08-12T01:09:09;4.20;;;3.80;;
3543;SDS011;1786;52.870;9.578;2023-08-12T01:16:52;5.47;;;3.30;;
3543;SDS011;1786;52.870;9.578;2023-08-12T01:19:35;4.17;;;3.87;;
3543;SDS011;1786;52.870;9.578;2023-08-12T01:22:04;5.13;;;3.90;;
3543;SDS011;1786;52.870;9.578;2023-08-12T01:24:38;9.60;;;3.77;;
3543;SDS011;1786;52.870;9.578;2023-08-12T01:27:07;11.67;;;3.80;;
3543;SDS011;1786;52.870;9.578;2023-08-12T01:29:36;4.80;;;4.07;;
3543;SDS011;1786;52.870;9.578;2023-08-12T01:35:08;7.23;;;3.63;;
3543;SDS011;1786;52.870;9.578;2023-08-12T01:37:40;4.00;;;3.43;;
3543;SDS011;1786;52.870;9.578;2023-08-12T01:40:09;4.97;;;3.40;;
3543;SDS011;1786;52.870;9.578;2023-08-12T01:42:38;4.53;;;3.70;;
3543;SDS011;1786;52.870;9.578;2023-08-12T01:45:06;5.27;;;4.13;;
3543;SDS011;1786;52.870;9.578;2023-08-12T01:47:33;3.80;;;3.50;;
3543;SDS011;1786;52.870;9.578;2023-08-12T01:50:00;4.10;;;3.80;;
3543;SDS011;1786;52.870;9.578;2023-08-12T01:52:26;4.23;;;4.00;;
3543;SDS011;1786;52.870;9.578;2023-08-12T01:54:54;10.50;;;3.53;;
3543;SDS011;1786;52.870;9.578;2023-08-12T01:57:20;3.73;;;3.43;;
3543;SDS011;1786;52.870;9.578;2023-08-12T01:59:47;5.70;;;3.70;;
3543;SDS011;1786;52.870;9.578;2023-08-12T02:02:17;4.20;;;3.80;;
3543;SDS011;1786;52.870;9.578;2023-08-12T02:04:43;7.20;;;3.40;;
3543;SDS011;1786;52.870;9.578;2023-08-12T02:07:11;9.20;;;5.20;;
3543;SDS011;1786;52.870;9.578;2023-08-12T02:09:38;3.63;;;3.43;;
3543;SDS011;1786;52.870;9.578;2023-08-12T02:12:05;3.80;;;3.60;;
3543;SDS011;1786;52.870;9.578;2023-08-12T02:14:32;3.63;;;3.33;;
3543;SDS011;1786;52.870;9.578;2023-08-12T02:16:59;4.13;;;3.37;;
3543;SDS011;1786;52.870;9.578;2023-08-12T02:19:26;4.00;;;3.70;;
3543;SDS011;1786;52.870;9.578;2023-08-12T02:21:53;9.20;;;3.80;;
3543;SDS011;1786;52.870;9.578;2023-08-12T02:24:19;7.20;;;4.10;;
3543;SDS011;1786;52.870;9.578;2023-08-12T02:26:46;3.70;;;3.50;;
3543;SDS011;1786;52.870;9.578;2023-08-12T02:29:13;5.70;;;4.00;;
3543;SDS011;1786;52.870;9.578;2023-08-12T02:31:40;6.40;;;4.00;;
3543;SDS011;1786;52.870;9.578;2023-08-12T02:34:07;6.43;;;4.10;;
3543;SDS011;1786;52.870;9.578;2023-08-12T02:36:34;5.23;;;3.93;;
3543;SDS011;1786;52.870;9.578;2023-08-12T02:39:00;4.07;;;3.40;;
3543;SDS011;1786;52.870;9.578;2023-08-12T02:41:29;4.07;;;3.77;;
3543;SDS011;1786;52.870;9.578;2023-08-12T02:43:56;4.80;;;3.70;;
3543;SDS011;1786;52.870;9.578;2023-08-12T02:46:23;7.83;;;4.03;;
3543;SDS011;1786;52.870;9.578;2023-08-12T02:48:51;7.77;;;4.27;;
3543;SDS011;1786;52.870;9.578;2023-08-12T02:51:18;6.23;;;4.40;;
3543;SDS011;1786;52.870;9.578;2023-08-12T02:53:45;6.00;;;4.50;;
3543;SDS011;1786;52.870;9.578;2023-08-12T02:56:11;6.27;;;4.47;;
3543;SDS011;1786;52.870;9.578;2023-08-12T02:58:39;5.53;;;3.83;;
3543;SDS011;1786;52.870;9.578;2023-08-12T03:01:05;4.33;;;3.93;;
3543;SDS011;1786;52.870;9.578;2023-08-12T03:03:33;11.47;;;4.03;;
3543;SDS011;1786;52.870;9.578;2023-08-12T03:06:00;4.57;;;3.67;;
3543;SDS011;1786;52.870;9.578;2023-08-12T03:08:28;3.97;;;3.73;;
3543;SDS011;1786;52.870;9.578;2023-08-12T03:11:01;4.90;;;4.40;;
3543;SDS011;1786;52.870;9.578;2023-08-12T03:13:30;4.73;;;4.43;;
3543;SDS011;1786;52.870;9.578;2023-08-12T03:15:57;5.27;;;4.77;;
3543;SDS011;1786;52.870;9.578;2023-08-12T03:18:25;4.87;;;4.50;;
3543;SDS011;1786;52.870;9.578;2023-08-12T03:20:51;6.03;;;4.50;;
3543;SDS011;1786;52.870;9.578;2023-08-12T03:23:20;5.53;;;4.90;;
3543;SDS011;1786;52.870;9.578;2023-08-12T03:25:47;5.33;;;4.83;;
3543;SDS011;1786;52.870;9.578;2023-08-12T03:28:16;6.40;;;4.30;;
3543;SDS011;1786;52.870;9.578;2023-08-12T03:30:49;6.30;;;4.67;;
3543;SDS011;1786;52.870;9.578;2023-08-12T03:33:20;8.63;;;4.27;;
3543;SDS011;1786;52.870;9.578;2023-08-12T03:35:48;12.20;;;4.33;;
3543;SDS011;1786;52.870;9.578;2023-08-12T03:38:16;12.87;;;4.77;;
3543;SDS011;1786;52.870;9.578;2023-08-12T03:40:45;5.30;;;4.47;;
3543;SDS011;1786;52.870;9.578;2023-08-12T03:43:15;4.67;;;4.27;;
3543;SDS011;1786;52.870;9.578;2023-08-12T03:45:43;12.80;;;5.23;;
3543;SDS011;1786;52.870;9.578;2023-08-12T03:48:13;6.17;;;5.57;;
3543;SDS011;1786;52.870;9.578;2023-08-12T03:50:41;4.87;;;4.50;;
3543;SDS011;1786;52.870;9.578;2023-08-12T03:53:08;5.63;;;5.07;;
3543;SDS011;1786;52.870;9.578;2023-08-12T03:55:36;5.80;;;5.30;;
3543;SDS011;1786;52.870;9.578;2023-08-12T03:58:04;8.90;;;4.67;;
3543;SDS011;1786;52.870;9.578;2023-08-12T04:00:31;5.10;;;4.77;;
3543;SDS011;1786;52.870;9.578;2023-08-12T04:03:00;7.70;;;5.37;;
3543;SDS011;1786;52.870;9.578;2023-08-12T04:05:27;6.90;;;5.40;;
3543;SDS011;1786;52.870;9.578;2023-08-12T04:07:54;6.30;;;5.53;;
3543;SDS011;1786;52.870;9.578;2023-08-12T04:10:21;5.90;;;5.03;;
3543;SDS011;1786;52.870;9.578;2023-08-12T04:12:48;5.50;;;4.77;;
3543;SDS011;1786;52.870;9.578;2023-08-12T04:15:16;5.13;;;4.53;;
3543;SDS011;1786;52.870;9.578;2023-08-12T04:17:43;7.13;;;5.93;;
3543;SDS011;1786;52.870;9.578;2023-08-12T04:20:10;12.80;;;6.37;;
3543;SDS011;1786;52.870;9.578;2023-08-12T04:22:37;9.20;;;6.20;;
3543;SDS011;1786;52.870;9.578;2023-08-12T04:25:06;7.27;;;6.50;;
3543;SDS011;1786;52.870;9.578;2023-08-12T04:27:34;7.10;;;6.30;;
3543;SDS011;1786;52.870;9.578;2023-08-12T04:30:00;7.20;;;6.50;;
3543;SDS011;1786;52.870;9.578;2023-08-12T04:32:29;16.27;;;6.10;;
3543;SDS011;1786;52.870;9.578;2023-08-12T04:34:56;7.00;;;6.30;;
3543;SDS011;1786;52.870;9.578;2023-08-12T04:37:24;11.00;;;5.90;;
3543;SDS011;1786;52.870;9.578;2023-08-12T04:39:53;8.13;;;7.43;;
3543;SDS011;1786;52.870;9.578;2023-08-12T04:42:20;7.40;;;6.60;;
3543;SDS011;1786;52.870;9.578;2023-08-12T04:44:48;8.90;;;6.77;;
3543;SDS011;1786;52.870;9.578;2023-08-12T04:47:15;13.30;;;6.47;;
3543;SDS011;1786;52.870;9.578;2023-08-12T04:49:42;9.13;;;7.60;;
3543;SDS011;1786;52.870;9.578;2023-08-12T04:52:09;8.83;;;7.30;;
3543;SDS011;1786;52.870;9.578;2023-08-12T04:54:35;14.23;;;6.80;;
3543;SDS011;1786;52.870;9.578;2023-08-12T04:57:02;7.53;;;6.83;;
3543;SDS011;1786;52.870;9.578;2023-08-12T04:59:29;8.20;;;7.40;;
3543;SDS011;1786;52.870;9.578;2023-08-12T05:01:56;9.53;;;7.17;;
3543;SDS011;1786;52.870;9.578;2023-08-12T05:04:43;7.10;;;6.60;;
3543;SDS011;1786;52.870;9.578;2023-08-12T05:07:15;8.07;;;6.43;;
3543;SDS011;1786;52.870;9.578;2023-08-12T05:09:42;7.17;;;6.40;;
3543;SDS011;1786;52.870;9.578;2023-08-12T05:12:14;8.47;;;7.40;;
3543;SDS011;1786;52.870;9.578;2023-08-12T05:14:41;12.07;;;9.17;;
3543;SDS011;1786;52.870;9.578;2023-08-12T05:17:08;9.43;;;8.20;;
3543;SDS011;1786;52.870;9.578;2023-08-12T05:19:36;26.73;;;8.07;;
3543;SDS011;1786;52.870;9.578;2023-08-12T05:22:03;11.00;;;8.40;;
3543;SDS011;1786;52.870;9.578;2023-08-12T05:24:31;9.73;;;8.20;;
3543;SDS011;1786;52.870;9.578;2023-08-12T05:26:59;11.53;;;8.63;;
3543;SDS011;1786;52.870;9.578;2023-08-12T05:29:25;9.03;;;8.20;;
3543;SDS011;1786;52.870;9.578;2023-08-12T05:31:52;11.07;;;8.27;;
3543;SDS011;1786;52.870;9.578;2023-08-12T05:34:19;8.80;;;7.73;;
3543;SDS011;1786;52.870;9.578;2023-08-12T05:36:46;7.53;;;6.80;;
3543;SDS011;1786;52.870;9.578;2023-08-12T05:39:13;10.33;;;8.00;;
3543;SDS011;1786;52.870;9.578;2023-08-12T05:41:41;20.43;;;9.50;;
3543;SDS011;1786;52.870;9.578;2023-08-12T05:44:08;9.87;;;8.47;;
3543;SDS011;1786;52.870;9.578;2023-08-12T05:46:35;11.53;;;8.50;;
3543;SDS011;1786;52.870;9.578;2023-08-12T05:49:01;12.00;;;8.50;;
3543;SDS011;1786;52.870;9.578;2023-08-12T05:51:28;9.77;;;8.80;;
3543;SDS011;1786;52.870;9.578;2023-08-12T05:53:56;9.43;;;8.07;;
3543;SDS011;1786;52.870;9.578;2023-08-12T05:56:22;10.00;;;9.20;;
3543;SDS011;1786;52.870;9.578;2023-08-12T05:58:49;13.47;;;9.67;;
3543;SDS011;1786;52.870;9.578;2023-08-12T06:01:16;11.77;;;10.00;;
3543;SDS011;1786;52.870;9.578;2023-08-12T06:03:43;11.30;;;10.10;;
3543;SDS011;1786;52.870;9.578;2023-08-12T06:06:10;14.50;;;9.50;;
3543;SDS011;1786;52.870;9.578;2023-08-12T06:08:37;14.03;;;9.97;;
3543;SDS011;1786;52.870;9.578;2023-08-12T06:11:04;10.53;;;9.27;;
3543;SDS011;1786;52.870;9.578;2023-08-12T06:13:31;11.30;;;9.63;;
3543;SDS011;1786;52.870;9.578;2023-08-12T06:15:57;11.70;;;9.30;;
3543;SDS011;1786;52.870;9.578;2023-08-12T06:18:24;16.70;;;9.57;;
3543;SDS011;1786;52.870;9.578;2023-08-12T06:20:51;14.93;;;9.33;;
3543;SDS011;1786;52.870;9.578;2023-08-12T06:23:18;15.90;;;10.97;;
3543;SDS011;1786;52.870;9.578;2023-08-12T06:25:44;11.80;;;8.97;;
3543;SDS011;1786;52.870;9.578;2023-08-12T06:28:11;11.77;;;9.77;;
3543;SDS011;1786;52.870;9.578;2023-08-12T06:30:38;10.67;;;8.20;;
3543;SDS011;1786;52.870;9.578;2023-08-12T06:33:05;9.50;;;8.60;;
3543;SDS011;1786;52.870;9.578;2023-08-12T06:35:32;11.10;;;8.20;;
3543;SDS011;1786;52.870;9.578;2023-08-12T06:37:59;8.63;;;7.83;;
3543;SDS011;1786;52.870;9.578;2023-08-12T06:40:25;14.37;;;8.23;;
3543;SDS011;1786;52.870;9.578;2023-08-12T06:42:54;12.47;;;8.40;;
3543;SDS011;1786;52.870;9.578;2023-08-12T06:45:20;14.67;;;9.70;;
3543;SDS011;1786;52.870;9.578;2023-08-12T06:47:47;10.70;;;8.90;;
3543;SDS011;1786;52.870;9.578;2023-08-12T06:50:14;10.60;;;8.90;;
3543;SDS011;1786;52.870;9.578;2023-08-12T06:52:40;9.73;;;8.00;;
3543;SDS011;1786;52.870;9.578;2023-08-12T06:55:07;9.40;;;8.53;;
3543;SDS011;1786;52.870;9.578;2023-08-12T06:57:34;15.40;;;9.43;;
3543;SDS011;1786;52.870;9.578;2023-08-12T07:00:01;10.07;;;9.10;;
3543;SDS011;1786;52.870;9.578;2023-08-12T07:02:29;11.00;;;9.97;;
3543;SDS011;1786;52.870;9.578;2023-08-12T07:04:56;13.33;;;10.00;;
3543;SDS011;1786;52.870;9.578;2023-08-12T07:07:23;10.20;;;9.10;;
3543;SDS011;1786;52.870;9.578;2023-08-12T07:09:50;10.80;;;8.40;;
3543;SDS011;1786;52.870;9.578;2023-08-12T07:12:16;10.03;;;9.00;;
3543;SDS011;1786;52.870;9.578;2023-08-12T07:14:43;10.73;;;9.83;;
3543;SDS011;1786;52.870;9.578;2023-08-12T07:17:09;10.63;;;9.40;;
3543;SDS011;1786;52.870;9.578;2023-08-12T07:19:36;11.83;;;10.50;;
3543;SDS011;1786;52.870;9.578;2023-08-12T07:22:03;20.60;;;9.83;;
3543;SDS011;1786;52.870;9.578;2023-08-12T07:24:30;17.20;;;9.70;;
3543;SDS011;1786;52.870;9.578;2023-08-12T07:26:56;13.20;;;9.40;;
3543;SDS011;1786;52.870;9.578;2023-08-12T07:29:23;15.37;;;10.57;;
3543;SDS011;1786;52.870;9.578;2023-08-12T07:31:51;13.50;;;11.50;;
3543;SDS011;1786;52.870;9.578;2023-08-12T07:34:18;11.13;;;10.00;;
3543;SDS011;1786;52.870;9.578;2023-08-12T07:36:45;19.10;;;9.80;;
3543;SDS011;1786;52.870;9.578;2023-08-12T07:39:12;12.27;;;11.00;;
3543;SDS011;1786;52.870;9.578;2023-08-12T07:41:39;11.13;;;10.03;;
3543;SDS011;1786;52.870;9.578;2023-08-12T07:44:05;10.87;;;9.77;;
3543;SDS011;1786;52.870;9.578;2023-08-12T07:46:32;11.43;;;10.33;;
3543;SDS011;1786;52.870;9.578;2023-08-12T07:48:59;17.53;;;10.37;;
3543;SDS011;1786;52.870;9.578;2023-08-12T07:51:25;13.53;;;9.63;;
3543;SDS011;1786;52.870;9.578;2023-08-12T07:53:52;11.40;;;10.00;;
3543;SDS011;1786;52.870;9.578;2023-08-12T07:56:19;15.87;;;10.80;;
3543;SDS011;1786;52.870;9.578;2023-08-12T07:58:45;12.97;;;9.27;;
3543;SDS011;1786;52.870;9.578;2023-08-12T08:01:12;10.53;;;9.40;;
3543;SDS011;1786;52.870;9.578;2023-08-12T08:03:39;15.60;;;11.00;;
3543;SDS011;1786;52.870;9.578;2023-08-12T08:06:06;15.97;;;11.00;;
3543;SDS011;1786;52.870;9.578;2023-08-12T08:08:32;11.53;;;10.10;;
3543;SDS011;1786;52.870;9.578;2023-08-12T08:10:59;15.40;;;11.00;;
3543;SDS011;1786;52.870;9.578;2023-08-12T08:13:25;16.50;;;9.13;;
3543;SDS011;1786;52.870;9.578;2023-08-12T08:15:52;11.10;;;9.03;;
3543;SDS011;1786;52.870;9.578;2023-08-12T08:18:19;14.70;;;8.60;;
3543;SDS011;1786;52.870;9.578;2023-08-12T08:20:46;16.30;;;8.33;;
3543;SDS011;1786;52.870;9.578;2023-08-12T08:23:13;38.17;;;9.67;;
3543;SDS011;1786;52.870;9.578;2023-08-12T08:25:40;11.83;;;8.90;;
3543;SDS011;1786;52.870;9.578;2023-08-12T08:28:06;11.40;;;7.63;;
3543;SDS011;1786;52.870;9.578;2023-08-12T08:30:34;10.30;;;7.73;;
3543;SDS011;1786;52.870;9.578;2023-08-12T08:33:03;9.10;;;6.83;;
3543;SDS011;1786;52.870;9.578;2023-08-12T08:35:32;8.97;;;7.07;;
3543;SDS011;1786;52.870;9.578;2023-08-12T08:37:59;9.20;;;7.90;;
3543;SDS011;1786;52.870;9.578;2023-08-12T08:40:25;11.57;;;7.60;;
3543;SDS011;1786;52.870;9.578;2023-08-12T08:42:53;13.47;;;7.57;;
3543;SDS011;1786;52.870;9.578;2023-08-12T08:45:21;14.73;;;7.83;;
3543;SDS011;1786;52.870;9.578;2023-08-12T08:47:50;9.00;;;7.20;;
3543;SDS011;1786;52.870;9.578;2023-08-12T08:50:18;12.67;;;7.70;;
3543;SDS011;1786;52.870;9.578;2023-08-12T08:52:45;8.57;;;7.47;;
3543;SDS011;1786;52.870;9.578;2023-08-12T08:55:12;8.10;;;7.30;;
3543;SDS011;1786;52.870;9.578;2023-08-12T08:57:40;9.37;;;5.50;;
3543;SDS011;1786;52.870;9.578;2023-08-12T09:00:15;7.53;;;5.67;;
3543;SDS011;1786;52.870;9.578;2023-08-12T09:02:45;6.20;;;5.60;;
3543;SDS011;1786;52.870;9.578;2023-08-12T09:05:14;12.93;;;6.27;;
3543;SDS011;1786;52.870;9.578;2023-08-12T09:07:41;7.73;;;5.67;;
3543;SDS011;1786;52.870;9.578;2023-08-12T09:10:10;5.90;;;5.30;;
3543;SDS011;1786;52.870;9.578;2023-08-12T09:12:41;7.23;;;6.27;;
3543;SDS011;1786;52.870;9.578;2023-08-12T09:15:08;12.47;;;7.10;;
3543;SDS011;1786;52.870;9.578;2023-08-12T09:17:35;7.27;;;6.23;;
3543;SDS011;1786;52.870;9.578;2023-08-12T09:20:02;7.03;;;6.27;;
3543;SDS011;1786;52.870;9.578;2023-08-12T09:22:34;9.00;;;6.90;;
3543;SDS011;1786;52.870;9.578;2023-08-12T09:25:01;13.13;;;7.70;;
3543;SDS011;1786;52.870;9.578;2023-08-12T09:27:31;10.53;;;6.67;;
3543;SDS011;1786;52.870;9.578;2023-08-12T09:29:58;8.97;;;5.97;;
3543;SDS011;1786;52.870;9.578;2023-08-12T09:32:28;10.20;;;7.43;;
3543;SDS011;1786;52.870;9.578;2023-08-12T09:34:56;9.87;;;6.60;;
3543;SDS011;1786;52.870;9.578;2023-08-12T09:37:23;13.20;;;6.83;;
3543;SDS011;1786;52.870;9.578;2023-08-12T09:39:51;11.47;;;6.40;;
3543;SDS011;1786;52.870;9.578;2023-08-12T09:42:18;8.87;;;6.23;;
3543;SDS011;1786;52.870;9.578;2023-08-12T09:44:46;7.43;;;6.50;;
3543;SDS011;1786;52.870;9.578;2023-08-12T09:47:13;18.30;;;7.73;;
3543;SDS011;1786;52.870;9.578;2023-08-12T09:49:41;10.80;;;6.27;;
3543;SDS011;1786;52.870;9.578;2023-08-12T09:52:07;7.27;;;6.50;;
3543;SDS011;1786;52.870;9.578;2023-08-12T09:54:35;11.13;;;5.83;;
3543;SDS011;1786;52.870;9.578;2023-08-12T09:57:03;7.40;;;5.23;;
3543;SDS011;1786;52.870;9.578;2023-08-12T09:59:35;7.53;;;5.47;;
3543;SDS011;1786;52.870;9.578;2023-08-12T10:02:04;9.80;;;6.60;;
3543;SDS011;1786;52.870;9.578;2023-08-12T10:04:37;11.27;;;5.70;;
3543;SDS011;1786;52.870;9.578;2023-08-12T10:07:09;9.87;;;5.17;;
3543;SDS011;1786;52.870;9.578;2023-08-12T10:09:37;7.53;;;6.37;;
3543;SDS011;1786;52.870;9.578;2023-08-12T10:12:05;7.17;;;5.60;;
3543;SDS011;1786;52.870;9.578;2023-08-12T10:14:33;6.93;;;5.90;;
3543;SDS011;1786;52.870;9.578;2023-08-12T10:17:01;11.80;;;6.97;;
3543;SDS011;1786;52.870;9.578;2023-08-12T10:19:32;5.90;;;5.40;;
3543;SDS011;1786;52.870;9.578;2023-08-12T10:21:59;8.53;;;6.53;;
3543;SDS011;1786;52.870;9.578;2023-08-12T10:24:28;12.43;;;7.00;;
3543;SDS011;1786;52.870;9.578;2023-08-12T10:26:55;7.90;;;6.27;;
3543;SDS011;1786;52.870;9.578;2023-08-12T10:29:23;7.77;;;6.10;;
3543;SDS011;1786;52.870;9.578;2023-08-12T10:31:53;15.40;;;6.97;;
3543;SDS011;1786;52.870;9.578;2023-08-12T10:34:24;8.40;;;5.50;;
3543;SDS011;1786;52.870;9.578;2023-08-12T10:36:55;9.63;;;6.93;;
3543;SDS011;1786;52.870;9.578;2023-08-12T10:39:31;7.63;;;6.83;;
3543;SDS011;1786;52.870;9.578;2023-08-12T10:41:58;8.87;;;7.17;;
3543;SDS011;1786;52.870;9.578;2023-08-12T10:44:26;12.87;;;8.43;;
3543;SDS011;1786;52.870;9.578;2023-08-12T10:46:53;10.43;;;7.37;;
3543;SDS011;1786;52.870;9.578;2023-08-12T10:49:21;17.13;;;8.57;;
3543;SDS011;1786;52.870;9.578;2023-08-12T10:51:49;9.70;;;7.37;;
3543;SDS011;1786;52.870;9.578;2023-08-12T11:02:21;15.57;;;9.47;;
3543;SDS011;1786;52.870;9.578;2023-08-12T11:04:56;14.10;;;10.20;;
3543;SDS011;1786;52.870;9.578;2023-08-12T11:07:34;15.13;;;9.17;;
3543;SDS011;1786;52.870;9.578;2023-08-12T11:10:12;12.17;;;8.67;;
3543;SDS011;1786;52.870;9.578;2023-08-12T11:12:41;10.73;;;8.90;;
3543;SDS011;1786;52.870;9.578;2023-08-12T11:15:13;12.40;;;9.23;;
3543;SDS011;1786;52.870;9.578;2023-08-12T11:17:41;10.80;;;9.70;;
3543;SDS011;1786;52.870;9.578;2023-08-12T11:20:09;14.90;;;9.83;;
3543;SDS011;1786;52.870;9.578;2023-08-12T11:22:37;10.50;;;8.80;;
3543;SDS011;1786;52.870;9.578;2023-08-12T11:25:08;12.63;;;8.83;;
3543;SDS011;1786;52.870;9.578;2023-08-12T11:27:47;13.60;;;9.70;;
3543;SDS011;1786;52.870;9.578;2023-08-12T11:30:18;12.17;;;9.20;;
3543;SDS011;1786;52.870;9.578;2023-08-12T11:32:48;10.07;;;8.70;;
3543;SDS011;1786;52.870;9.578;2023-08-12T11:35:19;13.00;;;9.53;;
3543;SDS011;1786;52.870;9.578;2023-08-12T11:37:48;10.87;;;9.30;;
3543;SDS011;1786;52.870;9.578;2023-08-12T11:40:16;14.40;;;10.10;;
3543;SDS011;1786;52.870;9.578;2023-08-12T11:42:45;13.20;;;9.17;;
3543;SDS011;1786;52.870;9.578;2023-08-12T11:45:15;11.40;;;9.03;;
3543;SDS011;1786;52.870;9.578;2023-08-12T11:47:44;9.63;;;8.50;;
3543;SDS011;1786;52.870;9.578;2023-08-12T11:50:13;10.30;;;8.80;;
3543;SDS011;1786;52.870;9.578;2023-08-12T11:52:40;13.00;;;8.33;;
3543;SDS011;1786;52.870;9.578;2023-08-12T11:55:07;7.87;;;7.27;;
3543;SDS011;1786;52.870;9.578;2023-08-12T11:57:35;7.53;;;6.80;;
3543;SDS011;1786;52.870;9.578;2023-08-12T12:00:04;7.23;;;6.50;;
3543;SDS011;1786;52.870;9.578;2023-08-12T12:02:48;8.83;;;7.17;;
3543;SDS011;1786;52.870;9.578;2023-08-12T12:05:17;9.07;;;7.70;;
3543;SDS011;1786;52.870;9.578;2023-08-12T12:07:51;11.30;;;7.30;;
3543;SDS011;1786;52.870;9.578;2023-08-12T12:10:19;11.97;;;7.10;;
3543;SDS011;1786;52.870;9.578;2023-08-12T12:12:48;7.37;;;6.70;;
3543;SDS011;1786;52.870;9.578;2023-08-12T12:15:15;8.33;;;7.43;;
3543;SDS011;1786;52.870;9.578;2023-08-12T12:17:44;10.17;;;7.57;;
3543;SDS011;1786;52.870;9.578;2023-08-12T12:20:12;14.03;;;7.73;;
3543;SDS011;1786;52.870;9.578;2023-08-12T12:22:41;9.47;;;7.20;;
3543;SDS011;1786;52.870;9.578;2023-08-12T12:25:10;7.77;;;6.97;;
3543;SDS011;1786;52.870;9.578;2023-08-12T12:27:39;12.00;;;6.40;;
3543;SDS011;1786;52.870;9.578;2023-08-12T12:30:10;10.97;;;7.93;;
3543;SDS011;1786;52.870;9.578;2023-08-12T12:32:39;8.63;;;6.53;;
3543;SDS011;1786;52.870;9.578;2023-08-12T12:35:06;12.30;;;7.67;;
3543;SDS011;1786;52.870;9.578;2023-08-12T12:37:34;11.13;;;7.80;;
3543;SDS011;1786;52.870;9.578;2023-08-12T12:40:01;10.60;;;8.20;;
3543;SDS011;1786;52.870;9.578;2023-08-12T12:42:30;10.80;;;8.67;;
3543;SDS011;1786;52.870;9.578;2023-08-12T12:44:56;11.93;;;7.53;;
3543;SDS011;1786;52.870;9.578;2023-08-12T12:47:23;9.50;;;6.80;;
3543;SDS011;1786;52.870;9.578;2023-08-12T12:49:50;6.90;;;6.30;;
3543;SDS011;1786;52.870;9.578;2023-08-12T12:52:17;11.63;;;6.60;;
3543;SDS011;1786;52.870;9.578;2023-08-12T12:54:44;8.30;;;7.07;;
3543;SDS011;1786;52.870;9.578;2023-08-12T12:57:10;7.63;;;6.83;;
3543;SDS011;1786;52.870;9.578;2023-08-12T12:59:37;7.77;;;6.87;;
3543;SDS011;1786;52.870;9.578;2023-08-12T13:02:05;8.03;;;6.90;;
3543;SDS011;1786;52.870;9.578;2023-08-12T13:04:31;7.00;;;6.37;;
3543;SDS011;1786;52.870;9.578;2023-08-12T13:06:58;10.67;;;7.90;;
3543;SDS011;1786;52.870;9.578;2023-08-12T13:09:25;12.30;;;8.93;;
3543;SDS011;1786;52.870;9.578;2023-08-12T13:11:52;9.60;;;8.40;;
3543;SDS011;1786;52.870;9.578;2023-08-12T13:14:19;9.70;;;7.80;;
3543;SDS011;1786;52.870;9.578;2023-08-12T13:16:47;9.77;;;7.40;;
3543;SDS011;1786;52.870;9.578;2023-08-12T13:19:14;10.20;;;7.90;;
3543;SDS011;1786;52.870;9.578;2023-08-12T13:21:41;10.27;;;9.07;;
3543;SDS011;1786;52.870;9.578;2023-08-12T13:24:08;9.27;;;8.30;;
3543;SDS011;1786;52.870;9.578;2023-08-12T13:26:36;10.13;;;8.57;;
3543;SDS011;1786;52.870;9.578;2023-08-12T13:29:02;10.57;;;8.57;;
3543;SDS011;1786;52.870;9.578;2023-08-12T13:31:30;9.33;;;8.53;;
3543;SDS011;1786;52.870;9.578;2023-08-12T13:33:56;8.17;;;7.37;;
3543;SDS011;1786;52.870;9.578;2023-08-12T13:36:24;8.93;;;8.13;;
3543;SDS011;1786;52.870;9.578;2023-08-12T13:38:51;9.40;;;7.80;;
3543;SDS011;1786;52.870;9.578;2023-08-12T13:41:18;10.33;;;8.60;;
3543;SDS011;1786;52.870;9.578;2023-08-12T13:43:44;9.90;;;8.17;;
3543;SDS011;1786;52.870;9.578;2023-08-12T13:46:11;7.53;;;6.93;;
3543;SDS011;1786;52.870;9.578;2023-08-12T13:48:38;8.57;;;7.77;;
3543;SDS011;1786;52.870;9.578;2023-08-12T13:51:05;9.20;;;7.67;;
3543;SDS011;1786;52.870;9.578;2023-08-12T13:53:32;8.23;;;7.53;;
3543;SDS011;1786;52.870;9.578;2023-08-12T13:55:59;12.40;;;7.00;;
3543;SDS011;1786;52.870;9.578;2023-08-12T13:58:26;9.27;;;7.70;;
3543;SDS011;1786;52.870;9.578;2023-08-12T14:00:52;6.47;;;5.97;;
3543;SDS011;1786;52.870;9.578;2023-08-12T14:03:19;6.73;;;6.10;;
3543;SDS011;1786;52.870;9.578;2023-08-12T14:05:46;7.60;;;6.90;;
3543;SDS011;1786;52.870;9.578;2023-08-12T14:08:13;6.50;;;5.80;;
3543;SDS011;1786;52.870;9.578;2023-08-12T14:10:40;7.00;;;6.40;;
3543;SDS011;1786;52.870;9.578;2023-08-12T14:13:07;8.00;;;7.30;;
3543;SDS011;1786;52.870;9.578;2023-08-12T14:15:34;7.03;;;6.53;;
3543;SDS011;1786;52.870;9.578;2023-08-12T14:18:01;6.27;;;5.77;;
3543;SDS011;1786;52.870;9.578;2023-08-12T14:20:28;10.83;;;6.13;;
3543;SDS011;1786;52.870;9.578;2023-08-12T14:22:54;6.87;;;5.30;;
3543;SDS011;1786;52.870;9.578;2023-08-12T14:25:21;7.20;;;5.97;;
3543;SDS011;1786;52.870;9.578;2023-08-12T14:27:48;5.20;;;4.90;;
3543;SDS011;1786;52.870;9.578;2023-08-12T14:30:17;5.77;;;5.27;;
3543;SDS011;1786;52.870;9.578;2023-08-12T14:32:45;6.40;;;5.80;;
3543;SDS011;1786;52.870;9.578;2023-08-12T14:35:15;5.63;;;5.23;;
3543;SDS011;1786;52.870;9.578;2023-08-12T14:37:42;4.97;;;4.67;;
3543;SDS011;1786;52.870;9.578;2023-08-12T14:40:09;5.37;;;4.87;;
3543;SDS011;1786;52.870;9.578;2023-08-12T14:42:37;4.67;;;4.27;;
3543;SDS011;1786;52.870;9.578;2023-08-12T14:45:04;3.87;;;3.70;;
3543;SDS011;1786;52.870;9.578;2023-08-12T14:47:31;3.87;;;3.70;;
3543;SDS011;1786;52.870;9.578;2023-08-12T14:49:57;4.60;;;4.20;;
3543;SDS011;1786;52.870;9.578;2023-08-12T14:52:25;4.20;;;3.80;;
3543;SDS011;1786;52.870;9.578;2023-08-12T14:54:51;3.80;;;3.60;;
3543;SDS011;1786;52.870;9.578;2023-08-12T14:57:18;3.43;;;3.33;;
3543;SDS011;1786;52.870;9.578;2023-08-12T14:59:45;3.50;;;3.40;;
3543;SDS011;1786;52.870;9.578;2023-08-12T15:02:17;3.37;;;3.27;;
3543;SDS011;1786;52.870;9.578;2023-08-12T15:04:46;2.60;;;2.50;;
3543;SDS011;1786;52.870;9.578;2023-08-12T15:07:13;2.93;;;2.83;;
3543;SDS011;1786;52.870;9.578;2023-08-12T15:09:41;2.97;;;2.87;;
3543;SDS011;1786;52.870;9.578;2023-08-12T15:12:07;2.40;;;2.30;;
3543;SDS011;1786;52.870;9.578;2023-08-12T15:14:35;2.60;;;2.37;;
3543;SDS011;1786;52.870;9.578;2023-08-12T15:17:01;2.83;;;2.73;;
3543;SDS011;1786;52.870;9.578;2023-08-12T15:19:28;2.50;;;2.40;;
3543;SDS011;1786;52.870;9.578;2023-08-12T15:21:56;2.30;;;2.30;;
3543;SDS011;1786;52.870;9.578;2023-08-12T15:24:24;2.30;;;2.20;;
3543;SDS011;1786;52.870;9.578;2023-08-12T15:26:51;2.33;;;2.23;;
3543;SDS011;1786;52.870;9.578;2023-08-12T15:29:18;2.80;;;2.70;;